Latest Coastal Weather Observations for Cape Otway

IDV60701

Issued at 9:01 pm EDT Friday 19 December 2014 (issued every 10 minutes, with the page automatically refreshed every 10 minutes)

About coastal observations | Map of coastal stations | Coastal observations for VIC | Marine services | Other Formats
Station Details ID: 090015 Name: CAPE OTWAY LIGHTHOUSE Lat: -38.86 Lon: 143.51 Height: 82.0 m
Data from the previous 72 hours. | See also: Recent months at Cape Otway
Date/Time
EDT
Temp

°C
Wind Pressure Rain
since 9am
mm
Weather Cloud Vis
km
Sea
Height
m
Swell
Dir
 
Speed
knots
Gust
knots
hPa Trend Height
m
Period
s
Dir
19/09:00pm 14.8 W 13 19 1019.6 - 0.0 - - - - - - -
19/08:30pm 14.7 W 13 18 1019.6 - 0.0 - - - - - - -
19/08:00pm 14.7 W 14 19 1019.6 - 0.0 - - - - - - -
19/07:30pm 14.9 W 14 17 1019.3 - 0.0 - - - - - - -
19/07:00pm 15.9 WSW 13 19 1019.1 - 0.0 - - - - - - -
19/06:30pm 16.3 WSW 14 20 1019.0 - 0.0 - - - - - - -
19/06:00pm 16.2 W 15 20 1018.6 - 0.0 - - - - - - -
19/05:30pm 15.7 W 15 21 1018.6 - 0.0 - - - - - - -
19/05:00pm 16.6 W 16 21 1018.5 - 0.0 - - - - - - -
19/04:30pm 16.7 W 13 19 1018.5 - 0.0 - - - - - - -
19/04:00pm 17.0 W 13 17 1018.6 - 0.0 - - - - - - -
19/03:30pm 17.2 W 13 18 1018.5 - 0.0 - - - - - - -
19/03:00pm 16.4 W 12 17 1018.5 - 0.0 - - - - - - -
19/02:30pm 15.8 W 12 18 1018.7 - 0.0 - - - - - - -
19/02:00pm 16.1 W 12 16 1018.6 - 0.0 - - - - - - -
19/01:30pm 16.6 W 12 16 1018.6 - 0.0 - - - - - - -
19/01:00pm 16.5 WSW 13 17 1018.4 - 0.0 - - - - - - -
19/12:30pm 16.1 WSW 12 16 1018.5 - 0.0 - - - - - - -
19/12:00pm 15.6 WSW 13 16 1018.1 - 0.0 - - - - - - -
19/11:30am 15.4 WSW 14 17 1018.3 - 0.0 - - - - - - -
19/11:00am 15.6 WSW 13 17 1018.1 - 0.0 - - - - - - -
19/10:30am 15.2 WSW 13 16 1018.1 - 0.0 - - - - - - -
19/10:00am 14.7 WSW 13 17 1017.7 - 0.0 - - - - - - -
19/09:30am 14.1 SW 11 15 1017.6 - 0.0 - - - - - - -
19/09:00am 14.6 SW 13 16 1017.2 - 2.0 - - - - - - -
19/08:30am 14.1 SW 13 17 1016.8 - 2.0 - - - - - - -
19/08:00am 13.9 SW 13 19 1016.4 - 2.0 - - - - - - -
19/07:30am 13.8 SW 13 18 1016.1 - 2.0 - - - - - - -
19/07:00am 13.2 SW 13 19 1015.5 - 2.0 - - - - - - -
19/06:30am 12.9 SW 14 20 1015.2 - 2.0 - - - - - - -
19/06:00am 13.1 SW 18 24 1014.8 - 2.0 - - - - - - -
19/05:30am 13.3 SW 17 22 1014.6 - 2.0 - - - - - - -
19/05:00am 13.4 SW 19 29 1014.1 - 2.0 - - - - - - -
19/04:54am 13.3 SW 19 29 1014.0 - 2.0 - - - - - - -
19/04:52am 13.3 SW 19 29 1014.0 - 2.0 - - - - - - -
19/04:30am 13.2 SW 17 24 1014.0 - 2.0 - - - - - - -
19/04:06am 12.1 SW 18 29 1013.9 - 2.0 - - - - - - -
19/04:00am 12.2 SW 21 30 1013.8 - 2.0 - - - - - - -
19/03:56am 13.4 SW 17 27 1013.7 - 2.0 - - - - - - -
19/03:54am 13.4 SW 17 27 1013.7 - 2.0 - - - - - - -
19/03:30am 13.0 SW 16 24 1013.7 - 2.0 - - - - - - -
19/03:00am 13.1 WSW 16 23 1013.4 - 2.0 - - - - - - -
19/02:34am 12.4 SW 20 30 1013.5 - 2.0 - - - - - - -
19/02:32am 12.4 SW 20 30 1013.5 - 2.0 - - - - - - -
19/02:30am 12.4 SW 22 30 1013.5 - 2.0 - - - - - - -
19/02:00am 13.5 WSW 16 22 1013.4 - 2.0 - - - - - - -
19/01:30am 13.5 WSW 15 21 1013.4 - 2.0 - - - - - - -
19/01:00am 13.6 WSW 17 24 1013.3 - 2.0 - - - - - - -
19/12:30am 13.7 WSW 18 25 1013.3 - 2.0 - - - - - - -
19/12:00am 14.0 WSW 16 23 1013.0 - 2.0 - - - - - - -
 
Date/Time
EDT
Temp

°C
Wind Pressure Rain
since 9am
mm
Weather Cloud Vis
km
Sea
Height
m
Swell
Dir
 
Speed
knots
Gust
knots
hPa Trend Height
m
Period
s
Dir
18/11:30pm 14.0 WSW 16 23 1013.0 - 2.0 - - - - - - -
18/11:00pm 14.2 WSW 17 24 1013.0 - 2.0 - - - - - - -
18/10:30pm 14.1 WSW 17 23 1012.8 - 2.0 - - - - - - -
18/10:00pm 14.2 WSW 18 24 1012.6 - 2.0 - - - - - - -
18/09:30pm 14.4 WSW 17 23 1012.3 - 2.0 - - - - - - -
18/09:00pm 14.4 WSW 17 24 1011.7 - 2.0 - - - - - - -
18/08:30pm 14.5 WSW 17 24 1011.6 - 2.0 - - - - - - -
18/08:00pm 15.0 WSW 17 23 1011.2 - 2.0 - - - - - - -
18/07:30pm 15.1 WSW 16 23 1010.7 - 2.0 - - - - - - -
18/07:00pm 15.3 WSW 18 26 1010.2 - 1.8 - - - - - - -
18/06:30pm 14.7 WSW 16 24 1009.6 - 1.8 - - - - - - -
18/06:08pm 15.1 W 19 29 1009.2 - 1.2 - - - - - - -
18/06:06pm 15.1 W 19 29 1009.2 - 1.2 - - - - - - -
18/06:00pm 15.9 W 17 25 1009.0 - 1.2 - - - - - - -
18/05:30pm 16.5 WSW 18 27 1008.7 - 1.2 - - - - - - -
18/05:08pm 15.7 W 18 28 1008.4 - 1.2 - - - - - - -
18/05:06pm 15.7 W 18 28 1008.4 - 1.2 - - - - - - -
18/05:00pm 16.0 W 18 25 1008.4 - 1.2 - - - - - - -
18/04:30pm 17.0 W 20 27 1008.0 - 1.2 - - - - - - -
18/04:00pm 16.9 W 17 25 1007.6 - 1.2 - - - - - - -
18/03:30pm 15.5 W 13 20 1007.3 - 1.2 - - - - - - -
18/03:12pm 15.1 WNW 15 25 1007.3 - 1.2 - - - - - - -
18/03:00pm 15.3 WNW 15 22 1007.2 - 1.2 - - - - - - -
18/02:30pm 15.1 WNW 13 20 1006.8 - 1.2 - - - - - - -
18/02:00pm 14.0 WNW 13 19 1006.7 - 1.2 - - - - - - -
18/01:30pm 13.3 W 16 21 1006.5 - 1.2 - - - - - - -
18/01:00pm 13.5 W 20 28 1006.3 - 0.8 - - - - - - -
18/12:56pm 13.5 W 23 33 1006.2 - 0.6 - - - - - - -
18/12:51pm 14.1 W 25 33 1006.1 - 0.4 - - - - - - -
18/12:47pm 16.8 WNW 17 29 1006.0 - 0.0 - - - - - - -
18/12:45pm 16.8 WNW 16 29 1006.0 - 0.0 - - - - - - -
18/12:30pm 16.6 WNW 16 24 1005.9 - 0.0 - - - - - - -
18/12:00pm 17.8 NW 14 22 1005.6 - 0.0 - - - - - - -
18/11:30am 15.7 NW 15 23 1005.8 - 0.0 - - - - - - -
18/11:06am 16.4 WNW 15 25 1005.6 - 0.0 - - - - - - -
18/11:04am 16.4 WNW 15 25 1005.6 - 0.0 - - - - - - -
18/11:00am 17.4 WNW 14 20 1005.6 - 0.0 - - - - - - -
18/10:30am 16.6 WNW 14 21 1005.6 - 0.0 - - - - - - -
18/10:00am 16.5 WNW 15 21 1005.7 - 0.0 - - - - - - -
18/09:30am 17.1 NW 13 20 1005.7 - 0.0 - - - - - - -
18/09:00am 17.1 NW 9 15 1005.7 - 0.0 - - - - - - -
18/08:30am 16.0 N 11 16 1005.7 - 0.0 - - - - - - -
18/08:00am 15.2 N 9 14 1005.4 - 0.0 - - - - - - -
18/07:30am 13.6 N 8 11 1005.2 - 0.0 - - - - - - -
18/07:00am 12.7 N 7 9 1005.3 - 0.0 - - - - - - -
18/06:30am 11.6 N 9 10 1005.3 - 0.0 - - - - - - -
18/06:00am 11.0 N 9 11 1005.1 - 0.0 - - - - - - -
18/05:30am 10.3 N 8 10 1005.1 - 0.0 - - - - - - -
18/05:00am 10.7 N 9 11 1004.9 - 0.0 - - - - - - -
18/04:30am 11.0 N 9 10 1004.9 - 0.0 - - - - - - -
18/04:00am 10.9 N 9 11 1005.1 - 0.0 - - - - - - -
18/03:30am 11.1 N 9 10 1005.7 - 0.0 - - - - - - -
18/03:00am 11.2 N 8 10 1006.0 - 0.0 - - - - - - -
18/02:30am 11.2 N 9 11 1006.3 - 0.0 - - - - - - -
18/02:00am 11.2 N 9 11 1006.6 - 0.0 - - - - - - -
18/01:30am 10.7 NNW 8 9 1006.7 - 0.0 - - - - - - -
18/01:00am 10.9 NNW 8 9 1007.0 - 0.0 - - - - - - -
18/12:30am 10.8 N 8 9 1007.1 - 0.0 - - - - - - -
18/12:00am 11.3 N 9 10 1007.0 - 0.0 - - - - - - -
 
Date/Time
EDT
Temp

°C
Wind Pressure Rain
since 9am
mm
Weather Cloud Vis
km
Sea
Height
m
Swell
Dir
 
Speed
knots
Gust
knots
hPa Trend Height
m
Period
s
Dir
17/11:30pm 11.6 NNE 8 10 1007.5 - 0.0 - - - - - - -
17/11:00pm 12.1 N 8 9 1008.0 - 0.0 - - - - - - -
17/10:30pm 11.8 NNE 8 9 1008.1 - 0.0 - - - - - - -
17/10:00pm 11.8 NNE 8 9 1008.3 - 0.0 - - - - - - -
17/09:30pm 12.0 NNE 5 6 1008.4 - 0.0 - - - - - - -
17/09:00pm 12.7 NW 1 5 1008.4 - 0.0 - - - - - - -
17/08:30pm 14.6 WSW 2 5 1008.3 - 0.0 - - - - - - -
17/08:00pm 15.4 W 5 7 1008.2 - 0.0 - - - - - - -
17/07:30pm 15.7 WSW 6 8 1008.2 - 0.0 - - - - - - -
17/07:00pm 16.4 WSW 8 11 1008.1 - 0.0 - - - - - - -
17/06:30pm 16.2 WSW 10 13 1008.2 - 0.0 - - - - - - -
17/06:00pm 16.6 WSW 9 14 1008.1 - 0.0 - - - - - - -
17/05:30pm 16.8 WSW 10 15 1008.4 - 0.0 - - - - - - -
17/05:00pm 17.1 WSW 9 13 1008.5 - 0.0 - - - - - - -
17/04:30pm 17.4 W 11 14 1008.6 - 0.0 - - - - - - -
17/04:00pm 17.2 W 11 14 1008.7 - 0.0 - - - - - - -
17/03:30pm 17.3 W 11 15 1008.8 - 0.0 - - - - - - -
17/03:00pm 17.3 W 11 15 1008.9 - 0.0 - - - - - - -
17/02:30pm 16.3 W 12 17 1009.1 - 0.0 - - - - - - -
17/02:00pm 16.1 WNW 11 15 1009.4 - 0.0 - - - - - - -
17/01:30pm 16.7 W 14 20 1009.4 - 0.0 - - - - - - -
17/01:00pm 16.4 W 12 17 1009.4 - 0.0 - - - - - - -
17/12:30pm 17.0 W 11 16 1009.5 - 0.0 - - - - - - -
17/12:00pm 16.4 W 13 17 1009.2 - 0.0 - - - - - - -
17/11:30am 15.9 W 13 17 1009.1 - 0.0 - - - - - - -
17/11:00am 16.1 W 13 17 1009.1 - 0.0 - - - - - - -
17/10:30am 15.7 W 13 17 1009.0 - 0.0 - - - - - - -
17/10:00am 15.3 W 12 16 1008.9 - 0.0 - - - - - - -
17/09:30am 15.0 WSW 12 15 1009.0 - 0.0 - - - - - - -
17/09:00am 14.6 W 12 18 1008.7 - 5.6 - - - - - - -
17/08:30am 14.6 W 11 16 1008.6 - 5.6 - - - - - - -
17/08:00am 14.3 W 11 16 1008.2 - 5.6 - - - - - - -
17/07:30am 13.6 WSW 12 17 1007.8 - 5.6 - - - - - - -
17/07:00am 12.7 SSW 15 21 1007.3 - 5.6 - - - - - - -
17/06:30am 13.4 WSW 12 17 1006.9 - 5.6 - - - - - - -
17/06:00am 13.0 SW 11 18 1006.3 - 5.6 - - - - - - -
17/05:30am 13.2 WSW 13 18 1006.2 - 5.6 - - - - - - -
17/05:00am 13.1 WSW 14 21 1005.8 - 5.6 - - - - - - -
17/04:30am 13.2 WSW 16 22 1005.5 - 5.6 - - - - - - -
17/04:00am 13.4 WSW 17 23 1005.2 - 5.6 - - - - - - -
17/03:30am 13.3 WSW 17 25 1005.1 - 5.6 - - - - - - -
17/03:00am 13.3 WSW 20 25 1005.0 - 5.6 - - - - - - -
17/02:39am 13.4 WSW 19 31 1005.0 - 5.6 - - - - - - -
17/02:37am 13.4 WSW 20 31 1005.0 - 5.6 - - - - - - -
17/02:30am 13.4 WSW 18 26 1005.0 - 5.6 - - - - - - -
17/02:09am 13.5 WSW 21 31 1005.1 - 5.6 - - - - - - -
17/02:07am 13.5 WSW 21 31 1005.1 - 5.6 - - - - - - -
17/02:00am 13.5 SW 22 31 1005.0 - 5.6 - - - - - - -
17/01:30am 13.7 WSW 24 31 1004.7 - 5.6 - - - - - - -
17/01:00am 13.5 WSW 20 32 1004.4 - 5.6 - - - - - - -
17/12:30am 13.3 WSW 23 34 1004.4 - 5.6 - - - - - - -
17/12:00am 13.5 WSW 23 35 1003.9 - 5.6 - - - - - - -
 
Date/Time
EDT
Temp

°C
Wind Pressure Rain
since 9am
mm
Weather Cloud Vis
km
Sea
Height
m
Swell
Dir
 
Speed
knots
Gust
knots
hPa Trend Height
m
Period
s
Dir
16/11:33pm 13.0 WSW 20 31 1004.1 - 5.6 - - - - - - -
16/11:31pm 13.0 WSW 20 31 1004.1 - 5.6 - - - - - - -
16/11:30pm 12.9 WSW 20 27 1004.1 - 5.6 - - - - - - -
16/11:00pm 14.1 WSW 24 35 1003.9 - 5.2 - - - - - - -
16/10:38pm 14.2 WSW 23 33 1003.9 - 5.2 - - - - - - -
16/10:36pm 14.2 WSW 23 33 1003.9 - 5.2 - - - - - - -
16/10:30pm 14.1 WSW 25 33 1003.8 - 5.2 - - - - - - -
16/10:10pm 13.8 W 22 32 1003.5 - 5.2 - - - - - - -
16/10:01pm 13.6 W 23 33 1003.3 - 5.2 - - - - - - -
16/10:00pm 13.7 W 23 31 1003.4 - 5.2 - - - - - - -
16/09:30pm 13.3 WSW 21 31 1002.8 - 5.0 - - - - - - -
16/09:06pm 14.1 W 24 34 1002.4 - 5.0 - - - - - - -

Other Formats:

Comma delimited format used in spreadsheet applications
http://www.bom.gov.au/fwo/IDV60701/IDV60701.94842.axf

JavaScript Object Notation format (JSON) in row-major order
http://www.bom.gov.au/fwo/IDV60701/IDV60701.94842.json